Aeroporto :
LOGIN :

Iscrizione | Disclaimer

   EN    FR    IT 

 










Sommario :    VFR   VFR Marginale   IFR   IFR Intensivo   IFR Molto Intensivo
Visibilità : 
Base nubi : 
>= 8 km
>= 3000ft
5 / 8 km
1000 / 3000 ft
1500m / 5 km
500 / 1000 ft
800 / 1500m
200 / 500 ft
< 800m
< 200 ft
Simboli :   Temporali  Nebbia  Neve Forte  Precipitazioni Forti  Vento > 20 kt
SIGMETs :   Varie  Temporali  Ghiacco  Turbolenza  Onda orograficha  Ceneri Vulcaniche






- Altitudine del aeroporto : 357 ft
- Codice IATA : TUF


LFOT - Tours

ULTIMO METAR :
  • 132100Z AUTO 11003KT 9999 BKN032 15/13 Q1012 NOSIG

METARs OBSOLETI :
  • 132030Z AUTO 00000KT 9999 BKN033 16/13 Q1013 NOSIG
  • 132000Z AUTO 07002KT CAVOK 16/13 Q1012 NOSIG
  • 131930Z AUTO 12002KT CAVOK 16/13 Q1012 NOSIG
  • 131900Z AUTO 00000KT CAVOK 17/13 Q1012 NOSIG
  • 131830Z AUTO VRB02KT CAVOK 18/13 Q1011 NOSIG

TAF TAF LFOT
Valido dal 13 a 18 ore il 14 a 18 ore UTC


131700Z 1318/1418 VRB03KT CAVOK
PROB40
TEMPO 1323/1403 BKN030
PROB30
TEMPO 1403/1405 1500 BR BKN002
BECMG 1405/1408 16010KT
PROB30
TEMPO 1408/1411 -SHRA SCT090TCU
TEMPO 1414/1417 18017G35KT 4000 -SHRA BKN050TCU
PROB40
TEMPO 1414/1417 23020G40KT 2000 TSRA BKN020 BKN040CB
TEMPO 1417/1418 2500 -RA BKN012 BKN070TCU



MetMap, La meteo Aeronautica in un colpo d'occhio ! - Copyright ORBIFLY Dicembre 2007 - Disclaimer

ORBIFLY MET'MAP TEAM :

Programmazione e sviluppo : Alexandra Zaïnal
Concezione e sviluppo : Baudouin d'Aumeries
Co-Programmazione e sviluppo : Marc-Olivier Méhu
Supporto tecnico e logistico : Manuel Goepfert
Aiuto per la traduzione : Arnaldo La Scala

Contatto : metmap@orbifly.com




FONTI E CREDITI :

   NOAA